createdAt,value
2023-02-11T00:00:22.192Z,70.87
2023-02-11T00:03:25.451Z,71.32
2023-02-11T00:06:29.577Z,71.05
2023-02-11T00:09:31.981Z,69.99
2023-02-11T00:12:35.888Z,70.72
2023-02-11T00:15:38.746Z,72.40
2023-02-11T00:18:41.035Z,71.60
2023-02-11T00:21:45.173Z,71.55
2023-02-11T00:24:47.307Z,72.34
2023-02-11T00:27:52.053Z,71.04
2023-02-11T00:30:56.260Z,72.23
2023-02-11T00:34:01.801Z,72.25
2023-02-11T00:37:08.039Z,71.97
2023-02-11T00:40:10.557Z,72.13
2023-02-11T00:43:12.819Z,71.37
2023-02-11T00:46:16.151Z,71.20
2023-02-11T00:49:19.391Z,71.34
2023-02-11T00:52:21.461Z,70.89
2023-02-11T00:55:23.810Z,70.81
2023-02-11T00:58:25.865Z,71.02
2023-02-11T01:01:28.239Z,71.47
2023-02-11T01:04:30.478Z,72.13
2023-02-11T01:07:32.427Z,72.45
2023-02-11T01:10:34.479Z,71.80
2023-02-11T01:13:40.361Z,71.05
2023-02-11T01:16:42.353Z,71.97
2023-02-11T01:19:44.519Z,71.83
2023-02-11T01:22:46.542Z,72.36
2023-02-11T01:25:53.040Z,71.50
2023-02-11T01:28:55.509Z,72.85
2023-02-11T01:31:58.008Z,72.37
2023-02-11T01:35:00.122Z,72.39
2023-02-11T01:38:02.148Z,73.00
2023-02-11T01:41:10.451Z,71.95
2023-02-11T01:44:44.843Z,72.08
2023-02-11T01:47:46.801Z,71.90
2023-02-11T01:50:53.141Z,71.76
2023-02-11T01:54:15.009Z,72.08
2023-02-11T01:57:29.900Z,72.50
2023-02-11T02:00:37.274Z,73.02
2023-02-11T02:03:44.482Z,73.41
2023-02-11T02:06:53.713Z,72.29
2023-02-11T02:10:03.680Z,72.52
2023-02-11T02:13:05.732Z,72.71
2023-02-11T02:16:16.843Z,73.37
2023-02-11T02:19:42.467Z,73.21
2023-02-11T02:22:56.741Z,73.16
2023-02-11T02:26:14.823Z,73.40
2023-02-11T02:29:54.861Z,73.45
2023-02-11T02:33:41.204Z,73.30
2023-02-11T02:37:01.366Z,73.16
2023-02-11T02:40:11.883Z,73.46
2023-02-11T02:43:15.494Z,73.64
2023-02-11T02:46:30.482Z,73.17
2023-02-11T02:49:32.364Z,73.45
2023-02-11T02:53:12.414Z,73.03
2023-02-11T02:56:18.321Z,73.12
2023-02-11T02:59:53.661Z,72.60
2023-02-11T03:03:44.488Z,73.02
2023-02-11T03:06:55.307Z,73.51
2023-02-11T03:10:22.713Z,73.17
2023-02-11T03:13:29.982Z,72.89
2023-02-11T03:16:39.255Z,72.99
2023-02-11T03:19:44.231Z,73.15
2023-02-11T03:23:20.992Z,74.27
2023-02-11T03:26:35.203Z,73.70
2023-02-11T03:29:51.789Z,73.84
2023-02-11T03:33:05.730Z,73.75
2023-02-11T03:36:20.355Z,73.24
2023-02-11T03:39:30.893Z,73.42
2023-02-11T03:42:41.739Z,72.30
2023-02-11T03:45:49.538Z,71.92
2023-02-11T03:48:59.023Z,71.75
2023-02-11T03:52:03.518Z,72.34
2023-02-11T03:55:13.384Z,72.40
2023-02-11T03:58:16.968Z,71.86
2023-02-11T04:01:20.706Z,72.17
2023-02-11T04:04:22.816Z,70.88
2023-02-11T04:07:25.706Z,71.34
2023-02-11T04:10:27.717Z,71.84
2023-02-11T04:13:30.614Z,72.50
2023-02-11T04:16:32.701Z,73.74
2023-02-11T04:19:35.430Z,73.15
2023-02-11T04:22:39.129Z,73.74
2023-02-11T04:25:41.075Z,73.17
2023-02-11T04:28:43.033Z,74.02
2023-02-11T04:31:45.819Z,74.22
2023-02-11T04:34:48.530Z,74.69
2023-02-11T04:37:50.755Z,74.69
2023-02-11T04:40:55.945Z,75.53
2023-02-11T04:43:58.143Z,74.97
2023-02-11T04:47:00.135Z,75.03
2023-02-11T04:50:02.282Z,74.81
2023-02-11T04:53:04.371Z,74.18
2023-02-11T04:56:08.350Z,74.97
2023-02-11T04:59:11.621Z,74.39
2023-02-11T05:02:13.935Z,74.47
2023-02-11T05:05:16.101Z,74.30
2023-02-11T05:08:18.133Z,74.51
2023-02-11T05:11:23.256Z,75.74
2023-02-11T05:14:25.459Z,75.97
2023-02-11T05:17:27.535Z,75.88
2023-02-11T05:20:30.618Z,75.05
2023-02-11T05:23:35.634Z,75.15
2023-02-11T05:26:40.309Z,75.13
2023-02-11T05:29:42.776Z,74.99
2023-02-11T05:32:44.794Z,75.47
2023-02-11T05:35:46.823Z,74.85
2023-02-11T05:38:48.895Z,76.17
2023-02-11T05:41:52.409Z,75.68
2023-02-11T05:44:54.243Z,75.56
2023-02-11T05:47:57.844Z,75.72
2023-02-11T05:51:00.081Z,74.77
2023-02-11T05:54:02.098Z,74.12
2023-02-11T05:57:04.367Z,75.28
2023-02-11T06:00:08.707Z,75.99
2023-02-11T06:03:10.739Z,74.97
2023-02-11T06:06:12.879Z,74.27
2023-02-11T06:09:15.477Z,74.29
2023-02-11T06:12:17.598Z,75.66
2023-02-11T06:15:19.573Z,74.69
2023-02-11T06:18:21.527Z,75.71
2023-02-11T06:21:33.532Z,76.35
2023-02-11T06:25:00.469Z,75.86
2023-02-11T06:28:06.633Z,75.63
2023-02-11T06:31:09.803Z,74.83
2023-02-11T06:34:14.866Z,74.92
2023-02-11T06:37:16.828Z,74.14
2023-02-11T06:40:18.824Z,74.34
2023-02-11T06:43:21.127Z,75.20
2023-02-11T06:46:23.485Z,73.99
2023-02-11T06:49:25.840Z,73.97
2023-02-11T06:52:27.862Z,74.94
2023-02-11T06:55:29.912Z,74.92
2023-02-11T06:58:32.714Z,74.57
2023-02-11T07:01:35.155Z,75.10
2023-02-11T07:04:37.334Z,74.02
2023-02-11T07:07:39.375Z,73.98
2023-02-11T07:10:41.818Z,74.52
2023-02-11T07:13:43.944Z,72.95
2023-02-11T07:16:45.826Z,73.67
2023-02-11T07:19:47.792Z,72.70
2023-02-11T07:22:50.189Z,73.48
2023-02-11T07:25:52.885Z,73.19
2023-02-11T07:28:55.285Z,71.24
2023-02-11T07:31:57.893Z,70.63
2023-02-11T07:35:00.229Z,69.91
2023-02-11T07:38:02.944Z,69.31
2023-02-11T07:41:11.396Z,69.83
2023-02-11T07:44:15.806Z,71.14
2023-02-11T07:47:18.549Z,69.47
2023-02-11T07:50:20.930Z,67.79
2023-02-11T07:53:22.955Z,67.29
2023-02-11T07:56:25.357Z,68.15
2023-02-11T07:59:27.608Z,66.45
2023-02-11T08:02:29.807Z,65.37
2023-02-11T08:05:31.953Z,65.02
2023-02-11T08:08:35.491Z,64.57
2023-02-11T08:11:37.696Z,63.76
2023-02-11T08:14:40.016Z,62.82
2023-02-11T08:17:42.052Z,62.03
2023-02-11T08:20:45.015Z,62.11
2023-02-11T08:23:47.467Z,61.18
2023-02-11T08:26:49.838Z,60.78
2023-02-11T08:29:52.169Z,60.65
2023-02-11T08:32:54.173Z,59.85
2023-02-11T08:35:56.096Z,60.21
2023-02-11T08:39:16.108Z,59.81
2023-02-11T08:42:20.004Z,59.39
2023-02-11T08:45:22.160Z,59.36
2023-02-11T08:48:25.727Z,58.97
2023-02-11T08:51:31.551Z,58.93
2023-02-11T08:54:33.677Z,57.68
2023-02-11T08:57:35.928Z,57.37
2023-02-11T09:00:38.451Z,56.67
2023-02-11T09:03:40.650Z,56.16
2023-02-11T09:06:42.604Z,57.53
2023-02-11T09:09:44.656Z,58.11
2023-02-11T09:12:47.216Z,58.92
2023-02-11T09:15:49.326Z,59.10
2023-02-11T09:18:51.453Z,59.17
2023-02-11T09:21:53.262Z,58.73
2023-02-11T09:24:55.649Z,58.83
2023-02-11T09:27:58.226Z,58.72
2023-02-11T09:31:09.073Z,57.80
2023-02-11T09:34:12.016Z,57.70
2023-02-11T09:37:14.574Z,56.82
2023-02-11T09:40:17.354Z,56.65
2023-02-11T09:43:29.444Z,56.13
2023-02-11T09:46:37.722Z,55.41
2023-02-11T09:49:48.572Z,55.71
2023-02-11T09:53:11.088Z,55.30
2023-02-11T09:56:15.526Z,55.23
2023-02-11T09:59:18.674Z,56.18
2023-02-11T10:02:29.018Z,55.55
2023-02-11T10:05:52.437Z,55.68
2023-02-11T10:09:18.855Z,55.72
2023-02-11T10:13:04.052Z,55.73
2023-02-11T10:16:21.292Z,55.41
2023-02-11T10:19:41.317Z,55.29
2023-02-11T10:22:54.052Z,54.96
2023-02-11T10:25:57.833Z,55.01
2023-02-11T10:29:05.622Z,54.69
2023-02-11T10:32:25.796Z,54.08
2023-02-11T10:35:27.738Z,53.71
2023-02-11T10:38:34.210Z,53.31
2023-02-11T10:41:41.969Z,53.69
2023-02-11T10:44:58.040Z,53.34
2023-02-11T10:48:01.848Z,53.15
2023-02-11T10:51:34.244Z,53.01
2023-02-11T10:54:36.530Z,53.16
2023-02-11T10:57:50.465Z,52.34
2023-02-11T11:00:55.776Z,52.00
2023-02-11T11:04:00.290Z,51.11
2023-02-11T11:07:30.835Z,50.66
2023-02-11T11:10:45.188Z,50.55
2023-02-11T11:13:58.212Z,48.83
2023-02-11T11:17:00.179Z,49.66
2023-02-11T11:20:20.675Z,49.20
2023-02-11T11:23:24.847Z,50.61
2023-02-11T11:26:39.653Z,51.21
2023-02-11T11:29:55.449Z,51.11
2023-02-11T11:32:58.740Z,49.96
2023-02-11T11:36:07.967Z,50.76
2023-02-11T11:39:16.141Z,49.79
2023-02-11T11:42:25.780Z,48.59
2023-02-11T11:45:28.123Z,47.67
2023-02-11T11:48:39.545Z,47.34
2023-02-11T11:51:47.903Z,45.84
2023-02-11T11:54:59.044Z,45.43
2023-02-11T11:58:01.944Z,44.83
2023-02-11T12:01:19.255Z,44.01
2023-02-11T12:04:48.174Z,43.11
2023-02-11T12:08:08.037Z,42.11
2023-02-11T12:11:12.710Z,41.69
2023-02-11T12:14:33.057Z,41.14
2023-02-11T12:17:47.207Z,41.22
2023-02-11T12:21:14.062Z,42.54
2023-02-11T12:24:33.214Z,42.14
2023-02-11T12:27:50.103Z,42.61
2023-02-11T12:31:04.543Z,42.31
2023-02-11T12:34:42.106Z,41.87
2023-02-11T12:38:05.774Z,41.38
2023-02-11T12:41:47.011Z,41.13
2023-02-11T12:45:07.774Z,40.88
2023-02-11T12:48:13.098Z,40.80
2023-02-11T12:51:34.216Z,40.71
2023-02-11T12:54:54.254Z,40.52
2023-02-11T12:57:59.487Z,39.85
2023-02-11T13:01:08.391Z,40.42
2023-02-11T13:04:24.102Z,40.91
2023-02-11T13:07:33.357Z,39.57
2023-02-11T13:10:38.342Z,39.23
2023-02-11T13:14:04.558Z,39.66
2023-02-11T13:17:17.544Z,38.92
2023-02-11T13:20:33.066Z,38.40
2023-02-11T13:24:09.850Z,37.68
2023-02-11T13:27:29.969Z,37.51
2023-02-11T13:30:35.923Z,37.35
2023-02-11T13:33:44.349Z,37.25
2023-02-11T13:36:55.192Z,36.88
2023-02-11T13:40:04.054Z,37.23
2023-02-11T13:43:19.204Z,36.91
2023-02-11T13:46:21.858Z,36.87
2023-02-11T13:49:40.797Z,37.18
2023-02-11T13:52:43.146Z,37.33
2023-02-11T13:55:47.692Z,37.44
2023-02-11T13:58:59.046Z,38.15
2023-02-11T14:02:47.438Z,38.29
2023-02-11T14:06:28.781Z,38.20
2023-02-11T14:09:37.416Z,38.29
2023-02-11T14:12:39.577Z,38.93
2023-02-11T14:15:41.539Z,38.52
2023-02-11T14:18:50.045Z,39.31
2023-02-11T14:21:52.184Z,39.07
2023-02-11T14:25:01.734Z,38.96
2023-02-11T14:28:16.841Z,39.01
2023-02-11T14:31:25.138Z,39.21
2023-02-11T14:35:05.179Z,38.98
2023-02-11T14:38:37.763Z,39.96
2023-02-11T14:41:42.940Z,38.97
2023-02-11T14:44:46.059Z,39.55
2023-02-11T14:48:03.501Z,39.41
2023-02-11T14:51:13.857Z,40.42
2023-02-11T14:54:22.798Z,39.73
2023-02-11T14:57:25.419Z,40.99
2023-02-11T15:00:27.765Z,41.33
2023-02-11T15:03:48.148Z,41.02
2023-02-11T15:06:50.777Z,41.88
2023-02-11T15:09:57.331Z,41.76
2023-02-11T15:13:02.396Z,41.74
2023-02-11T15:16:11.271Z,42.31
2023-02-11T15:19:41.203Z,42.76
2023-02-11T15:22:46.193Z,42.59
2023-02-11T15:25:56.514Z,42.29
2023-02-11T15:29:01.559Z,42.07
2023-02-11T15:32:07.189Z,42.25
2023-02-11T15:35:12.006Z,41.96
2023-02-11T15:38:14.468Z,42.48
2023-02-11T15:41:38.210Z,42.81
2023-02-11T15:44:40.243Z,42.43
2023-02-11T15:47:51.603Z,42.96
2023-02-11T15:50:58.752Z,43.54
2023-02-11T15:54:17.076Z,44.11
2023-02-11T15:57:21.811Z,43.85
2023-02-11T16:00:28.894Z,43.81
2023-02-11T16:03:33.728Z,44.26
2023-02-11T16:06:43.302Z,45.07
2023-02-11T16:09:45.595Z,44.81
2023-02-11T16:12:53.185Z,45.17
2023-02-11T16:16:01.734Z,45.43
2023-02-11T16:19:06.205Z,45.69
2023-02-11T16:22:15.937Z,45.53
2023-02-11T16:25:21.249Z,45.34
2023-02-11T16:28:23.817Z,45.45
2023-02-11T16:31:36.774Z,45.21
2023-02-11T16:34:39.017Z,46.52
2023-02-11T16:37:41.188Z,46.55
2023-02-11T16:40:45.004Z,45.92
2023-02-11T16:43:47.699Z,46.32
2023-02-11T16:46:49.960Z,46.62
2023-02-11T16:49:52.866Z,46.64
2023-02-11T16:52:57.500Z,47.01
2023-02-11T16:55:59.674Z,46.54
2023-02-11T16:59:02.081Z,46.75
2023-02-11T17:02:04.043Z,47.08
2023-02-11T17:05:15.515Z,47.17
2023-02-11T17:08:17.731Z,47.04
2023-02-11T17:11:19.994Z,46.98
2023-02-11T17:14:21.902Z,47.17
2023-02-11T17:17:24.123Z,47.24
2023-02-11T17:20:26.601Z,47.38
2023-02-11T17:23:28.825Z,46.79
2023-02-11T17:26:30.905Z,47.45
2023-02-11T17:29:36.830Z,47.56
2023-02-11T17:32:38.951Z,47.58
2023-02-11T17:35:41.222Z,47.45
2023-02-11T17:38:44.729Z,47.70
2023-02-11T17:41:47.695Z,47.40
2023-02-11T17:44:49.644Z,47.71
2023-02-11T17:47:52.393Z,47.43
2023-02-11T17:50:54.689Z,47.37
2023-02-11T17:53:58.967Z,47.54
2023-02-11T17:57:01.112Z,47.29
2023-02-11T18:00:06.433Z,48.26
2023-02-11T18:03:09.005Z,48.23
2023-02-11T18:06:12.415Z,49.02
2023-02-11T18:09:16.023Z,48.56
2023-02-11T18:12:25.606Z,48.87
2023-02-11T18:15:29.320Z,48.53
2023-02-11T18:18:32.144Z,47.73
2023-02-11T18:21:34.675Z,47.58
2023-02-11T18:24:36.875Z,48.44
2023-02-11T18:27:41.819Z,48.02
2023-02-11T18:30:44.212Z,48.56
2023-02-11T18:33:47.929Z,49.45
2023-02-11T18:36:50.619Z,49.90
2023-02-11T18:39:53.470Z,49.78
2023-02-11T18:42:56.137Z,50.91
2023-02-11T18:45:58.945Z,50.61
2023-02-11T18:49:01.368Z,50.34
2023-02-11T18:52:04.284Z,50.49
2023-02-11T18:55:09.275Z,50.50
2023-02-11T18:58:12.248Z,50.44
2023-02-11T19:01:22.876Z,50.43
2023-02-11T19:04:25.453Z,50.44
2023-02-11T19:07:27.690Z,50.08
2023-02-11T19:10:30.084Z,49.90
2023-02-11T19:13:32.639Z,49.44
2023-02-11T19:16:34.927Z,49.53
2023-02-11T19:19:37.351Z,49.13
2023-02-11T19:22:39.521Z,48.70
2023-02-11T19:25:47.994Z,49.28
2023-02-11T19:28:50.148Z,49.91
2023-02-11T19:31:52.699Z,49.81
2023-02-11T19:34:55.061Z,50.26
2023-02-11T19:37:57.556Z,49.76
2023-02-11T19:41:03.895Z,49.35
2023-02-11T19:44:08.317Z,50.48
2023-02-11T19:47:10.689Z,49.95
2023-02-11T19:50:13.522Z,49.64
2023-02-11T19:53:15.798Z,49.93
2023-02-11T19:56:20.833Z,50.29
2023-02-11T19:59:23.826Z,50.68
2023-02-11T20:02:30.031Z,50.75
2023-02-11T20:05:32.292Z,50.91
2023-02-11T20:08:34.471Z,51.41
2023-02-11T20:11:39.744Z,51.94
2023-02-11T20:14:42.215Z,51.82
2023-02-11T20:17:44.458Z,52.27
2023-02-11T20:20:46.598Z,52.80
2023-02-11T20:24:08.233Z,53.19
2023-02-11T20:27:12.513Z,53.71
2023-02-11T20:30:17.330Z,54.55
2023-02-11T20:33:21.631Z,54.33
2023-02-11T20:36:26.637Z,54.79
2023-02-11T20:39:28.588Z,55.21
2023-02-11T20:42:30.447Z,54.92
2023-02-11T20:45:35.803Z,56.23
2023-02-11T20:48:38.432Z,56.48
2023-02-11T20:51:40.725Z,56.36
2023-02-11T20:54:43.489Z,58.17
2023-02-11T20:57:46.661Z,59.28
2023-02-11T21:00:48.983Z,60.10
2023-02-11T21:03:54.543Z,61.38
2023-02-11T21:06:59.594Z,60.91
2023-02-11T21:10:01.931Z,61.09
2023-02-11T21:13:04.182Z,61.67
2023-02-11T21:16:07.453Z,63.02
2023-02-11T21:19:09.683Z,62.60
2023-02-11T21:22:12.667Z,63.51
2023-02-11T21:25:18.200Z,63.60
2023-02-11T21:28:30.991Z,62.96
2023-02-11T21:31:34.476Z,63.00
2023-02-11T21:34:36.631Z,63.63
2023-02-11T21:37:38.725Z,63.16
2023-02-11T21:40:42.308Z,64.25
2023-02-11T21:43:45.670Z,64.52
2023-02-11T21:46:50.020Z,63.97
2023-02-11T21:49:55.500Z,64.07
2023-02-11T21:52:57.882Z,63.60
2023-02-11T21:56:04.552Z,63.79
2023-02-11T21:59:08.044Z,64.38
2023-02-11T22:02:11.504Z,64.67
2023-02-11T22:05:13.638Z,65.50
2023-02-11T22:08:16.683Z,65.77
2023-02-11T22:11:20.781Z,66.23
2023-02-11T22:14:22.966Z,66.98
2023-02-11T22:17:25.067Z,66.91
2023-02-11T22:20:27.474Z,67.62
2023-02-11T22:23:30.364Z,67.95
2023-02-11T22:26:36.500Z,67.85
2023-02-11T22:29:38.857Z,67.94
2023-02-11T22:32:44.600Z,68.09
2023-02-11T22:35:46.745Z,67.83
2023-02-11T22:38:53.007Z,68.32
2023-02-11T22:41:56.595Z,68.84
2023-02-11T22:44:58.443Z,68.96
2023-02-11T22:48:04.074Z,68.79
2023-02-11T22:51:15.212Z,68.96
2023-02-11T22:54:19.011Z,69.37
2023-02-11T22:57:20.909Z,69.06
2023-02-11T23:00:26.489Z,69.43
2023-02-11T23:03:28.963Z,70.01
2023-02-11T23:06:30.864Z,69.93
2023-02-11T23:09:32.906Z,70.52
2023-02-11T23:12:35.164Z,71.13
2023-02-11T23:15:42.073Z,70.82
2023-02-11T23:18:45.596Z,70.79
2023-02-11T23:21:51.101Z,70.61
2023-02-11T23:24:53.176Z,70.72
2023-02-11T23:27:55.233Z,71.09
2023-02-11T23:30:57.423Z,71.14
2023-02-11T23:34:01.146Z,72.16
2023-02-11T23:37:03.418Z,71.86
2023-02-11T23:40:05.872Z,71.92
2023-02-11T23:43:08.129Z,71.94
2023-02-11T23:46:10.950Z,72.03
2023-02-11T23:49:13.255Z,72.41
2023-02-11T23:52:15.231Z,72.45
2023-02-11T23:55:17.425Z,72.42
2023-02-11T23:58:19.297Z,72.87
